Weather - Helsinki Query any day in the database

Current weather  

Weather data for a selected day (2006-01-01 -2020-10-30)
Enter date:     <-     scroll days         ->
day curves
Low temperature°C +11.023:50
High temperature°C +15.000:50
Low wind chill°C 7.723:50
Average temperature°C +13.0 
High wind speed (10 min) m/s 13.017:20
Low pressurehPa 989.012:20
High pressurehPa 994.020:20
Low R.H% 6216:20
High R.H% 10010:50
Day weather data as a table
Date Time Temp
°C
Chill
°C
Pressure
hPA
Wind
m/s
Hum
%
Precip
mm
2010-06-12 23:50:00 11.0  7.7  992.0 9.0 87 -
2010-06-12 23:20:00 12.0  9.3  993.0 8.0 81 -
2010-06-12 22:50:00 11.0  7.7  993.0 9.0 87 -
2010-06-12 22:20:00 11.0  8.2  993.0 7.0 93 -
2010-06-12 21:50:00 11.0  8.2  993.0 7.0 93 -
2010-06-12 21:20:00 11.0  8.2  993.0 7.0 93 -
2010-06-12 20:50:00 11.0  7.7  993.0 9.0 87 -
2010-06-12 20:20:00 12.0  9.0  994.0 9.0 81 -
2010-06-12 19:50:00 13.0  10.0  994.0 11.0 66 -
2010-06-12 19:20:00 13.0  10.2  994.0 10.0 66 -
2010-06-12 18:50:00 13.0  9.8  994.0 12.0 71 -
2010-06-12 18:20:00 13.0  9.8  994.0 12.0 66 -
2010-06-12 17:50:00 13.0  10.2  994.0 10.0 71 -
2010-06-12 17:20:00 14.0  11.1  994.0 13.0 67 -
2010-06-12 16:50:00 14.0  11.2  993.0 12.0 62 -
2010-06-12 16:20:00 14.0  11.7  993.0 9.0 62 -
2010-06-12 15:50:00 13.0  10.2  993.0 10.0 71 -
2010-06-12 15:20:00 13.0  10.0  993.0 11.0 71 -
2010-06-12 14:50:00 13.0  10.0  992.0 11.0 76 -
2010-06-12 14:20:00 13.0  10.2  991.0 10.0 76 -
2010-06-12 13:50:00 14.0  11.5  991.0 10.0 76 -
2010-06-12 13:20:00 13.0  10.4  990.0 9.0 87 -
2010-06-12 12:50:00 13.0  10.2  990.0 10.0 87 -
2010-06-12 12:20:00 13.0  10.2  989.0 10.0 93 -
2010-06-12 11:50:00 13.0  10.4  989.0 9.0 93 -
2010-06-12 11:20:00 14.0  11.7  989.0 9.0 93 -
2010-06-12 10:50:00 14.0  12.1  989.0 7.0 100 -
2010-06-12 10:20:00 14.0  12.1  989.0 7.0 93 -
2010-06-12 09:50:00 14.0  12.6  989.0 5.0 93 -
2010-06-12 09:20:00 14.0  12.6  989.0 5.0 93 -
2010-06-12 08:50:00 13.0  11.3  989.0 5.0 100 -
2010-06-12 08:20:00 13.0  11.3  989.0 5.0 93 -
2010-06-12 07:50:00 13.0  11.0  990.0 6.0 93 -
2010-06-12 07:20:00 13.0  11.0  990.0 6.0 93 -
2010-06-12 06:50:00 12.0  10.4  990.0 4.0 100 -
2010-06-12 06:20:00 13.0  11.3  990.0 5.0 93 -
2010-06-12 05:50:00 12.0  10.1  990.0 5.0 100 -
2010-06-12 05:20:00 13.0  11.3  990.0 5.0 93 -
2010-06-12 04:50:00 13.0  11.3  991.0 5.0 93 -
2010-06-12 04:20:00 13.0  11.0  991.0 6.0 100 -
2010-06-12 03:50:00 13.0  11.3  991.0 5.0 100 -
2010-06-12 03:20:00 14.0  12.6  992.0 5.0 93 -
2010-06-12 02:50:00 14.0  12.6  992.0 5.0 93 -
2010-06-12 02:20:00 14.0  12.6  993.0 5.0 93 -
2010-06-12 01:50:00 14.0  12.3  993.0 6.0 93 -
2010-06-12 01:20:00 14.0  12.3  994.0 6.0 100 -
2010-06-12 00:50:00 15.0  14.1  994.0 4.0 93 -
2010-06-12 00:20:00 14.0  12.9  994.0 4.0 100 -
Unit conversions: